Time;durP1;ratioP1;P1;durP2;ratioP2;P2;SDS_P1;SDS_P2;PMS_P1;PMS_P2;Temp;Humidity;BMP_temperature;BMP_pressure;BME280_temperature;BME280_humidity;BME280_pressure;Samples;Min_cycle;Max_cycle;Signal;HPM_P1;HPM_P2
2021/03/28 00:02:32;;;;;;;5.55;1.52;;;22.50;31.70;;;;;;5077217;28;20066;-72
2021/03/28 00:05:07;;;;;;;5.80;1.77;;;22.50;31.70;;;;;;5078233;28;20023;-72
2021/03/28 00:07:40;;;;;;;3.50;1.20;;;22.50;31.70;;;;;;5096601;28;20032;-72
2021/03/28 00:10:09;;;;;;;4.97;1.35;;;22.50;31.80;;;;;;5093596;28;20070;-72
2021/03/28 00:12:36;;;;;;;7.30;1.40;;;22.40;31.80;;;;;;5076898;28;20106;-72
2021/03/28 00:15:11;;;;;;;5.07;1.42;;;22.40;31.90;;;;;;5065643;28;20062;-72
2021/03/28 00:17:55;;;;;;;2.65;1.38;;;22.40;31.80;;;;;;5109156;28;20529;-73
2021/03/28 00:20:25;;;;;;;6.22;1.40;;;22.40;31.80;;;;;;5089405;28;20088;-72
2021/03/28 00:23:09;;;;;;;5.25;1.70;;;22.40;31.90;;;;;;5067622;28;20024;-72
2021/03/28 00:25:42;;;;;;;4.88;1.20;;;22.40;31.90;;;;;;5095955;28;20057;-72
2021/03/28 00:28:38;;;;;;;7.90;1.35;;;22.30;31.90;;;;;;5078331;28;20029;-72
2021/03/28 00:31:17;;;;;;;4.85;1.38;;;22.30;31.90;;;;;;5061929;28;20039;-72
2021/03/28 00:37:07;;;;;;;2.88;1.00;;;22.30;31.90;;;;;;5094850;28;20043;-72
2021/03/28 00:39:35;;;;;;;3.72;1.38;;;22.20;31.90;;;;;;5089109;28;20024;-72
2021/03/28 00:42:23;;;;;;;8.40;1.25;;;22.30;31.90;;;;;;5075771;28;20520;-72
2021/03/28 00:45:17;;;;;;;5.50;1.40;;;22.20;31.90;;;;;;4979851;28;20045;-72
2021/03/28 00:47:45;;;;;;;4.25;1.27;;;22.20;31.90;;;;;;4936074;29;20043;-71
2021/03/28 00:50:22;;;;;;;6.03;1.25;;;22.20;31.90;;;;;;4934360;29;20043;-72
2021/03/28 00:52:52;;;;;;;3.88;1.23;;;22.20;31.90;;;;;;4934094;29;20039;-72
2021/03/28 00:55:20;;;;;;;4.70;1.13;;;22.20;32.00;;;;;;4903103;29;20075;-71
2021/03/28 00:57:56;;;;;;;3.65;0.73;;;22.20;32.00;;;;;;4914173;29;20036;-71
2021/03/28 01:00:46;;;;;;;3.17;1.05;;;22.10;31.90;;;;;;4934020;29;20080;-71
2021/03/28 01:03:35;;;;;;;6.53;1.00;;;22.10;31.90;;;;;;4935318;29;20091;-71
2021/03/28 01:06:11;;;;;;;4.68;1.58;;;22.10;31.90;;;;;;4934947;29;20051;-72
2021/03/28 01:09:19;;;;;;;5.05;1.70;;;22.10;31.90;;;;;;4934483;29;20044;-72
2021/03/28 01:11:52;;;;;;;2.72;0.98;;;22.10;31.80;;;;;;4862532;29;20061;-72
2021/03/28 01:14:39;;;;;;;6.07;0.70;;;22.20;31.90;;;;;;4877990;29;20128;-72
2021/03/28 01:17:28;;;;;;;4.38;1.60;;;22.10;31.80;;;;;;4878859;29;20051;-72
2021/03/28 01:19:58;;;;;;;4.57;1.10;;;22.10;32.40;;;;;;4866585;29;20146;-72
2021/03/28 01:22:33;;;;;;;6.68;1.50;;;22.20;31.80;;;;;;4917123;29;20051;-72
2021/03/28 01:25:17;;;;;;;3.38;1.27;;;22.10;31.70;;;;;;4971252;28;20046;-72
2021/03/28 01:27:53;;;;;;;4.80;1.33;;;22.10;31.80;;;;;;5010938;28;20092;-72
2021/03/28 01:30:43;;;;;;;6.43;1.27;;;22.10;31.80;;;;;;4976652;28;20030;-72
2021/03/28 01:36:41;;;;;;;8.10;1.52;;;22.10;31.80;;;;;;4941756;28;20469;-72
2021/03/28 01:46:57;;;;;;;5.07;1.73;;;22.10;31.90;;;;;;5088711;28;20062;-72
2021/03/28 01:49:38;;;;;;;2.17;1.08;;;22.10;31.90;;;;;;5087836;28;20039;-71
2021/03/28 01:52:36;;;;;;;6.25;1.58;;;22.10;32.00;;;;;;5083362;28;20106;-72
2021/03/28 01:55:18;;;;;;;6.53;1.40;;;22.00;32.00;;;;;;5075529;28;20178;-71
2021/03/28 01:57:50;;;;;;;4.20;1.15;;;22.00;32.00;;;;;;5080065;28;20019;-71
2021/03/28 02:00:31;;;;;;;4.45;1.13;;;22.00;32.00;;;;;;5072277;28;20107;-71
2021/03/28 02:03:21;;;;;;;4.68;1.40;;;22.00;32.10;;;;;;5093043;28;20024;-72
2021/03/28 02:06:12;;;;;;;5.32;1.42;;;22.00;32.10;;;;;;5068748;28;20399;-71
2021/03/28 02:09:21;;;;;;;6.07;1.50;;;22.00;32.10;;;;;;5084161;28;20043;-71
2021/03/28 02:12:30;;;;;;;5.03;1.33;;;22.00;32.10;;;;;;5018366;28;20053;-72
2021/03/28 02:15:02;;;;;;;3.85;1.17;;;22.00;32.20;;;;;;5010475;28;20031;-71
2021/03/28 02:17:50;;;;;;;4.25;1.17;;;22.00;32.20;;;;;;5024166;28;20161;-73
2021/03/28 02:20:21;;;;;;;6.32;1.30;;;22.00;32.20;;;;;;4998706;28;20041;-72
2021/03/28 02:23:19;;;;;;;3.60;1.10;;;21.90;32.20;;;;;;5023997;28;20033;-73
2021/03/28 02:25:56;;;;;;;4.25;1.15;;;21.90;32.20;;;;;;5002034;28;20034;-72
2021/03/28 02:28:45;;;;;;;7.65;1.50;;;21.90;32.20;;;;;;4998910;28;20556;-74
2021/03/28 02:31:36;;;;;;;4.82;1.30;;;21.90;32.20;;;;;;5081110;27;20357;-72
2021/03/28 02:34:04;;;;;;;3.85;1.50;;;21.90;32.20;;;;;;5083344;28;20034;-73
2021/03/28 02:37:20;;;;;;;4.22;1.20;;;21.90;32.20;;;;;;5068948;28;20036;-72
2021/03/28 02:40:11;;;;;;;4.20;1.20;;;21.90;32.30;;;;;;5076568;28;20091;-72
2021/03/28 02:42:59;;;;;;;5.07;1.20;;;21.90;32.30;;;;;;5072821;28;20037;-72
2021/03/28 02:45:30;;;;;;;3.38;1.25;;;21.90;32.40;;;;;;5058846;28;20020;-72
2021/03/28 02:48:24;;;;;;;5.60;1.10;;;21.90;32.40;;;;;;5068364;28;20031;-73
2021/03/28 02:51:17;;;;;;;5.75;1.42;;;21.90;32.40;;;;;;5084480;28;20411;-73
2021/03/28 02:54:06;;;;;;;3.30;1.10;;;21.80;32.30;;;;;;5077779;28;20028;-73
2021/03/28 02:56:50;;;;;;;5.32;1.30;;;21.90;32.50;;;;;;5070440;28;20024;-73
2021/03/28 02:59:53;;;;;;;4.38;1.20;;;21.80;32.40;;;;;;5083343;28;20089;-73
2021/03/28 03:02:44;;;;;;;6.15;1.70;;;21.90;32.50;;;;;;5083798;28;20029;-73
2021/03/28 03:05:40;;;;;;;4.28;1.45;;;21.80;32.40;;;;;;5074664;28;20535;-73
2021/03/28 03:08:13;;;;;;;4.53;1.10;;;21.90;32.50;;;;;;5096866;28;20044;-73
2021/03/28 03:10:51;;;;;;;5.82;1.13;;;21.90;32.40;;;;;;5090071;28;20267;-73
2021/03/28 03:13:36;;;;;;;6.82;1.25;;;21.90;32.40;;;;;;5080968;28;20081;-73
2021/03/28 03:16:37;;;;;;;6.75;1.35;;;21.80;32.30;;;;;;5073251;28;20040;-73
2021/03/28 03:19:06;;;;;;;7.15;1.33;;;21.80;32.20;;;;;;4980442;28;20054;-73
2021/03/28 03:22:09;;;;;;;6.15;1.20;;;21.90;32.30;;;;;;4995593;28;20047;-72
2021/03/28 03:24:37;;;;;;;1.95;0.90;;;21.90;32.30;;;;;;4980643;28;20035;-72
2021/03/28 03:27:23;;;;;;;5.65;1.58;;;21.90;32.30;;;;;;4983100;28;20639;-73
2021/03/28 03:30:10;;;;;;;2.75;1.20;;;21.90;32.40;;;;;;4980578;28;20058;-73
2021/03/28 03:32:58;;;;;;;4.35;1.20;;;21.90;32.40;;;;;;4977083;28;20576;-73
2021/03/28 03:35:42;;;;;;;2.65;1.20;;;21.80;32.30;;;;;;4946743;28;20023;-73
2021/03/28 03:38:29;;;;;;;3.60;1.02;;;21.90;32.40;;;;;;4950652;28;20565;-74
2021/03/28 03:41:26;;;;;;;6.47;1.30;;;21.80;32.40;;;;;;4963987;28;20047;-74
2021/03/28 03:44:14;;;;;;;4.22;1.30;;;21.90;32.50;;;;;;4971712;28;20027;-74
2021/03/28 03:46:45;;;;;;;3.85;1.40;;;21.80;32.40;;;;;;4952465;29;20463;-74
2021/03/28 03:49:46;;;;;;;4.45;1.27;;;21.80;32.40;;;;;;4926246;29;20043;-73
2021/03/28 03:52:34;;;;;;;2.88;1.10;;;21.80;32.40;;;;;;4924791;29;20051;-74
2021/03/28 03:55:04;;;;;;;4.72;1.58;;;21.80;32.40;;;;;;4937439;29;20036;-73
2021/03/28 03:57:39;;;;;;;8.27;1.40;;;21.80;32.50;;;;;;4937263;29;20515;-74
2021/03/28 04:00:12;;;;;;;5.50;1.48;;;21.80;32.40;;;;;;4928454;29;20543;-75
2021/03/28 04:03:01;;;;;;;4.15;0.25;;;21.80;32.40;;;;;;4933884;29;20067;-75
2021/03/28 04:05:39;;;;;;;0.25;0.25;;;21.80;32.50;;;;;;4933390;29;20047;-72
2021/03/28 04:08:36;;;;;;;0.85;0.68;;;21.80;32.60;;;;;;4938469;29;20043;-73
2021/03/28 04:11:13;;;;;;;0.88;0.32;;;21.80;32.60;;;;;;4920897;29;20047;-73
2021/03/28 04:13:57;;;;;;;0.17;0.17;;;21.70;32.60;;;;;;4914686;28;20031;-73
2021/03/28 04:16:31;;;;;;;0.05;0.05;;;21.70;32.70;;;;;;4934705;29;20071;-73
2021/03/28 04:19:23;;;;;;;0.40;0.30;;;21.70;32.70;;;;;;4934881;29;20054;-73
2021/03/28 04:22:06;;;;;;;0.95;0.35;;;21.70;32.70;;;;;;4903959;29;20037;-72
2021/03/28 04:24:38;;;;;;;3.40;0.50;;;21.70;32.70;;;;;;4890778;29;20037;-73
2021/03/28 04:27:37;;;;;;;0.20;0.20;;;21.70;32.80;;;;;;4907907;28;20036;-73
2021/03/28 04:30:03;;;;;;;0.03;0.03;;;21.60;32.80;;;;;;4948875;28;20106;-73
2021/03/28 04:32:56;;;;;;;0.65;0.30;;;21.60;32.80;;;;;;4906716;29;20048;-74
2021/03/28 04:35:26;;;;;;;0.47;0.47;;;21.60;32.80;;;;;;4912879;29;20055;-74
2021/03/28 04:38:00;;;;;;;1.00;0.35;;;21.60;32.80;;;;;;4906280;29;20021;-73
2021/03/28 04:41:09;;;;;;;3.75;0.15;;;21.60;32.90;;;;;;4888918;29;20044;-73
2021/03/28 04:43:56;;;;;;;0.45;0.10;;;21.60;33.00;;;;;;4915858;29;20079;-74
2021/03/28 04:46:32;;;;;;;0.10;0.10;;;21.60;33.00;;;;;;4937885;29;20475;-74
2021/03/28 04:49:23;;;;;;;0.63;0.20;;;21.60;33.00;;;;;;4906816;29;20051;-72
2021/03/28 04:52:06;;;;;;;0.47;0.30;;;21.60;33.00;;;;;;4924272;29;20504;-72
2021/03/28 04:54:53;;;;;;;0.40;0.40;;;21.60;33.10;;;;;;4920626;29;20524;-73
2021/03/28 04:57:50;;;;;;;0.10;0.10;;;21.50;33.00;;;;;;4923847;29;20110;-73
2021/03/28 05:00:27;;;;;;;0.20;0.10;;;21.50;33.00;;;;;;5038765;28;20417;-73
2021/03/28 05:03:05;;;;;;;1.83;0.43;;;21.50;33.00;;;;;;5039355;28;20057;-73
2021/03/28 05:05:49;;;;;;;2.30;0.40;;;21.50;33.00;;;;;;5032612;28;20104;-73
2021/03/28 05:08:25;;;;;;;0.30;0.30;;;21.60;33.00;;;;;;5026624;28;20033;-73
2021/03/28 05:11:09;;;;;;;0.65;0.13;;;21.60;33.10;;;;;;5058595;28;20022;-73
2021/03/28 05:13:49;;;;;;;0.40;0.20;;;21.60;33.10;;;;;;5032780;28;20032;-73
2021/03/28 05:16:39;;;;;;;1.13;0.28;;;21.60;33.20;;;;;;5031580;28;20048;-72
2021/03/28 05:19:35;;;;;;;0.30;0.30;;;21.60;33.20;;;;;;5032871;28;20029;-73
2021/03/28 05:22:12;;;;;;;1.65;0.32;;;21.60;33.20;;;;;;5032392;28;20040;-73
2021/03/28 05:28:34;;;;;;;0.03;0.03;;;21.60;33.30;;;;;;4992482;28;20426;-73
2021/03/28 05:31:14;;;;;;;0.20;0.15;;;21.60;33.30;;;;;;5045375;28;20094;-73
2021/03/28 05:37:09;;;;;;;0.10;0.10;;;21.50;33.30;;;;;;5045858;28;20032;-73
2021/03/28 05:40:10;;;;;;;4.95;0.30;;;21.50;33.30;;;;;;5046081;28;20403;-74
2021/03/28 05:42:52;;;;;;;0.22;0.15;;;21.50;33.40;;;;;;5066154;28;20047;-73
2021/03/28 05:45:37;;;;;;;0.20;0.20;;;21.50;34.10;;;;;;5050252;28;20511;-73
2021/03/28 05:48:25;;;;;;;0.30;0.20;;;21.50;33.40;;;;;;5075051;28;20056;-72
2021/03/28 05:51:08;;;;;;;1.20;0.60;;;21.50;33.50;;;;;;5047426;28;20017;-74
2021/03/28 05:53:43;;;;;;;0.80;0.15;;;21.50;33.50;;;;;;5051002;28;20032;-73
2021/03/28 05:56:14;;;;;;;0.20;0.20;;;21.50;33.60;;;;;;5047434;28;20048;-72
2021/03/28 05:59:01;;;;;;;0.90;0.43;;;21.50;33.60;;;;;;5050476;28;20035;-72
2021/03/28 06:01:49;;;;;;;0.22;0.10;;;21.50;33.70;;;;;;5048736;28;20013;-72
2021/03/28 06:04:52;;;;;;;1.50;0.30;;;21.50;33.80;;;;;;5048930;28;20032;-72
2021/03/28 06:07:39;;;;;;;0.32;0.20;;;21.50;33.80;;;;;;5047728;28;20068;-72
2021/03/28 06:10:17;;;;;;;0.30;0.00;;;21.50;33.90;;;;;;5049478;28;20033;-72
2021/03/28 06:13:16;;;;;;;5.18;0.50;;;21.50;33.90;;;;;;5049305;28;20025;-72
2021/03/28 06:16:27;;;;;;;4.32;0.57;;;21.50;33.90;;;;;;5049294;28;20496;-73
2021/03/28 06:19:09;;;;;;;0.10;0.10;;;21.50;34.00;;;;;;5038368;28;20040;-72
2021/03/28 06:22:03;;;;;;;1.45;0.52;;;21.50;34.00;;;;;;5045404;28;20515;-72
2021/03/28 06:24:56;;;;;;;0.17;0.10;;;21.40;34.00;;;;;;5048484;28;20448;-72
2021/03/28 06:27:53;;;;;;;1.35;0.55;;;21.50;34.10;;;;;;5049626;28;20033;-72
2021/03/28 06:30:49;;;;;;;0.70;0.32;;;21.40;34.00;;;;;;5056677;28;20059;-73
2021/03/28 06:33:33;;;;;;;;;;;21.40;34.00;;;;;;5069833;28;20044;-72
2021/03/28 06:36:11;;;;;;;0.10;0.10;;;21.40;34.10;;;;;;5067744;28;19915;-72
2021/03/28 06:38:45;;;;;;;0.00;0.00;;;21.40;34.20;;;;;;5065023;28;20070;-72
2021/03/28 06:41:28;;;;;;;0.08;0.08;;;21.40;34.20;;;;;;5070973;28;20041;-72
2021/03/28 06:44:21;;;;;;;1.85;0.75;;;21.40;34.20;;;;;;5068126;28;20021;-72
2021/03/28 06:47:11;;;;;;;10.05;0.40;;;21.50;34.20;;;;;;5054770;28;20044;-72
2021/03/28 06:49:39;;;;;;;0.57;0.30;;;21.50;34.20;;;;;;5051025;28;20020;-72
2021/03/28 06:52:36;;;;;;;0.22;0.20;;;21.60;34.10;;;;;;5068276;28;20057;-72
2021/03/28 06:58:58;;;;;;;0.65;0.20;;;21.80;34.10;;;;;;5055650;28;20032;-73
2021/03/28 07:01:37;;;;;;;0.10;0.10;;;22.00;33.70;;;;;;5062183;28;20037;-72
2021/03/28 07:04:27;;;;;;;1.85;0.40;;;22.10;33.40;;;;;;5059941;28;20548;-72
2021/03/28 07:07:13;;;;;;;0.52;0.32;;;22.30;33.20;;;;;;5055157;28;20466;-73
2021/03/28 07:10:16;;;;;;;0.47;0.30;;;22.40;33.10;;;;;;5061303;28;20037;-72
2021/03/28 07:13:20;;;;;;;0.10;0.10;;;22.40;32.90;;;;;;5053396;28;20518;-72
2021/03/28 07:16:25;;;;;;;0.80;0.47;;;22.60;32.90;;;;;;4983040;28;20160;-72
2021/03/28 07:19:09;;;;;;;0.17;0.17;;;22.60;32.70;;;;;;5031312;28;20485;-72
2021/03/28 07:21:44;;;;;;;0.30;0.30;;;22.70;32.60;;;;;;5019300;28;20489;-72
2021/03/28 07:24:46;;;;;;;0.20;0.20;;;22.70;32.50;;;;;;5021889;28;20042;-72
2021/03/28 07:27:27;;;;;;;0.08;0.08;;;22.80;32.40;;;;;;5021599;28;20038;-72
2021/03/28 07:30:23;;;;;;;0.00;0.00;;;22.80;32.40;;;;;;5009733;28;20115;-72
2021/03/28 07:32:51;;;;;;;0.00;0.00;;;22.90;32.40;;;;;;4998663;28;20124;-73
2021/03/28 07:35:41;;;;;;;1.08;0.38;;;22.90;32.30;;;;;;4994964;28;20040;-72
2021/03/28 07:38:51;;;;;;;0.10;0.10;;;22.80;32.30;;;;;;5002105;28;20057;-73
2021/03/28 07:41:59;;;;;;;0.30;0.22;;;22.90;32.40;;;;;;4995757;28;20514;-73
2021/03/28 07:44:49;;;;;;;0.30;0.30;;;22.90;32.40;;;;;;4989398;28;20140;-73
2021/03/28 07:47:30;;;;;;;3.03;0.75;;;22.90;32.30;;;;;;5018491;28;20026;-73
2021/03/28 07:50:18;;;;;;;0.75;0.30;;;22.90;32.30;;;;;;5013199;28;20084;-73
2021/03/28 07:56:24;;;;;;;0.20;0.10;;;23.00;32.30;;;;;;4935536;29;20046;-72
2021/03/28 07:58:58;;;;;;;0.70;0.43;;;23.00;32.20;;;;;;4933117;29;20447;-73
2021/03/28 08:01:36;;;;;;;0.10;0.10;;;23.00;32.10;;;;;;4934485;29;20043;-73
2021/03/28 08:04:06;;;;;;;0.03;0.03;;;23.00;32.00;;;;;;4945938;29;20047;-73
2021/03/28 08:06:53;;;;;;;1.17;0.10;;;23.10;31.80;;;;;;4948794;29;20122;-73
2021/03/28 08:10:06;;;;;;;0.43;0.43;;;23.10;31.90;;;;;;4941886;29;20082;-73
2021/03/28 08:12:44;;;;;;;1.85;0.50;;;23.20;31.90;;;;;;4910987;29;20086;-72
2021/03/28 08:15:30;;;;;;;2.20;0.52;;;23.20;32.00;;;;;;4910472;29;20123;-73
2021/03/28 08:18:14;;;;;;;;;;;23.20;31.60;;;;;;4902639;29;20054;-74
2021/03/28 08:21:00;;;;;;;0.93;0.60;;;23.20;31.50;;;;;;4914587;29;19981;-74
2021/03/28 08:24:18;;;;;;;0.90;0.13;;;23.20;31.20;;;;;;4932797;29;20066;-73
2021/03/28 08:27:12;;;;;;;0.40;0.40;;;23.30;31.50;;;;;;4888621;29;20036;-74
2021/03/28 08:30:14;;;;;;;0.17;0.17;;;23.30;31.70;;;;;;4899593;29;20095;-72
2021/03/28 08:32:58;;;;;;;4.22;0.30;;;23.30;31.60;;;;;;4946815;28;20588;-72
2021/03/28 08:42:44;;;;;;;1.90;0.60;;;23.40;30.60;;;;;;4930534;29;20046;-72
2021/03/28 08:45:29;;;;;;;1.30;0.50;;;23.30;30.00;;;;;;4934092;29;20108;-72
2021/03/28 08:48:29;;;;;;;2.57;0.50;;;23.20;29.80;;;;;;4948419;28;20527;-72
2021/03/28 08:51:19;;;;;;;1.02;0.55;;;23.20;29.80;;;;;;4937902;29;20118;-72
2021/03/28 08:54:12;;;;;;;2.20;0.13;;;23.20;30.00;;;;;;4973970;28;20077;-72
2021/03/28 08:56:59;;;;;;;1.13;0.25;;;23.20;29.90;;;;;;4970603;28;20474;-72
2021/03/28 08:59:30;;;;;;;0.68;0.38;;;23.20;29.70;;;;;;4973757;28;20027;-72
2021/03/28 09:02:38;;;;;;;1.77;0.55;;;23.20;29.80;;;;;;4972940;28;20066;-71
2021/03/28 09:05:16;;;;;;;0.90;0.30;;;23.30;29.70;;;;;;4895098;29;20060;-72
2021/03/28 09:07:48;;;;;;;3.78;0.75;;;23.40;29.60;;;;;;4885867;29;20120;-72
2021/03/28 09:10:35;;;;;;;0.70;0.40;;;23.40;29.20;;;;;;4873730;29;20055;-73
2021/03/28 09:13:14;;;;;;;9.38;0.60;;;23.50;29.50;;;;;;4892397;29;20032;-72
2021/03/28 09:15:48;;;;;;;0.30;0.20;;;23.50;29.50;;;;;;4958714;28;20236;-72
2021/03/28 09:18:33;;;;;;;0.60;0.30;;;23.50;29.50;;;;;;4975793;28;20118;-72
2021/03/28 09:21:05;;;;;;;5.13;0.50;;;23.60;29.70;;;;;;4960757;28;20456;-73
2021/03/28 09:23:42;;;;;;;0.57;0.57;;;23.60;29.80;;;;;;4984944;28;20027;-73
2021/03/28 09:26:28;;;;;;;0.68;0.35;;;23.80;29.90;;;;;;4977283;28;20034;-74
2021/03/28 09:29:05;;;;;;;5.28;0.90;;;23.80;30.00;;;;;;4979821;28;20581;-74
2021/03/28 09:31:49;;;;;;;2.05;0.57;;;23.80;29.90;;;;;;4973609;28;20127;-74
2021/03/28 09:34:18;;;;;;;3.55;1.02;;;23.80;29.90;;;;;;4946491;28;20044;-74
2021/03/28 09:37:12;;;;;;;3.13;0.45;;;23.80;29.70;;;;;;4961950;28;20035;-72
2021/03/28 09:39:39;;;;;;;1.85;0.50;;;23.80;29.70;;;;;;4979803;28;20118;-72
2021/03/28 09:42:37;;;;;;;3.38;1.17;;;23.90;29.80;;;;;;5032447;28;20384;-73
2021/03/28 09:45:28;;;;;;;1.10;0.75;;;23.90;29.40;;;;;;5044021;28;20040;-72
2021/03/28 09:48:31;;;;;;;2.88;0.45;;;23.90;29.30;;;;;;5042438;28;20028;-72
2021/03/28 09:51:20;;;;;;;2.40;0.50;;;23.90;29.40;;;;;;5056268;28;20041;-73
2021/03/28 09:54:16;;;;;;;2.60;1.10;;;23.90;29.40;;;;;;5048160;28;20488;-73
2021/03/28 09:57:13;;;;;;;3.50;0.47;;;24.00;28.80;;;;;;5051266;28;20439;-73
2021/03/28 09:59:48;;;;;;;1.95;0.98;;;23.90;28.80;;;;;;5064249;28;20025;-73
2021/03/28 10:02:47;;;;;;;2.67;0.40;;;24.00;28.60;;;;;;5069112;28;20446;-72
2021/03/28 10:05:26;;;;;;;1.85;0.50;;;23.90;28.60;;;;;;4994296;28;20128;-72
2021/03/28 10:07:54;;;;;;;1.33;0.65;;;24.00;28.20;;;;;;4987718;28;20134;-72
2021/03/28 10:10:37;;;;;;;0.85;0.20;;;24.00;28.10;;;;;;4990698;28;20062;-72
2021/03/28 10:13:21;;;;;;;1.38;0.30;;;24.00;28.20;;;;;;4985505;28;20026;-73
2021/03/28 10:16:03;;;;;;;1.60;0.30;;;23.90;27.80;;;;;;4976673;28;20511;-73
2021/03/28 10:18:51;;;;;;;3.28;0.93;;;23.90;27.30;;;;;;4997024;28;20034;-73
2021/03/28 10:22:10;;;;;;;0.55;0.47;;;23.90;27.50;;;;;;4981919;28;20069;-73
2021/03/28 10:24:57;;;;;;;3.83;0.30;;;23.80;26.90;;;;;;4948575;28;20512;-73
2021/03/28 10:27:41;;;;;;;0.08;0.08;;;23.80;26.70;;;;;;4943377;28;20106;-73
2021/03/28 10:30:26;;;;;;;1.88;0.43;;;23.90;27.00;;;;;;4935116;28;20208;-73
2021/03/28 10:32:52;;;;;;;0.90;0.25;;;23.90;27.10;;;;;;4943512;28;20031;-73
2021/03/28 10:36:05;;;;;;;0.77;0.25;;;23.90;27.10;;;;;;4953071;28;20043;-72
2021/03/28 10:38:33;;;;;;;3.60;0.55;;;24.00;27.40;;;;;;4875955;29;20044;-72
2021/03/28 10:41:02;;;;;;;0.50;0.20;;;24.00;27.20;;;;;;4885977;29;20045;-73
2021/03/28 10:43:53;;;;;;;3.28;0.40;;;24.00;26.60;;;;;;4901818;29;20044;-72
2021/03/28 10:46:40;;;;;;;1.88;0.28;;;23.90;26.10;;;;;;4892891;29;20041;-73
2021/03/28 10:49:17;;;;;;;0.13;0.10;;;23.90;26.30;;;;;;4908749;29;20044;-73
2021/03/28 10:52:04;;;;;;;0.88;0.20;;;23.90;26.60;;;;;;4910890;29;20036;-72
2021/03/28 10:54:54;;;;;;;0.20;0.20;;;23.90;26.20;;;;;;4905827;29;20529;-72
2021/03/28 10:57:58;;;;;;;0.77;0.28;;;23.90;26.40;;;;;;4909763;29;20052;-73
2021/03/28 11:00:46;;;;;;;0.75;0.40;;;24.00;26.60;;;;;;4935967;29;20119;-73
2021/03/28 11:03:49;;;;;;;0.30;0.30;;;24.10;26.70;;;;;;4931835;29;20044;-72
2021/03/28 11:06:40;;;;;;;1.23;0.35;;;24.10;26.50;;;;;;4942894;29;20435;-72
2021/03/28 11:09:21;;;;;;;0.45;0.10;;;24.20;26.30;;;;;;4991585;28;20091;-73
2021/03/28 11:11:59;;;;;;;1.02;0.30;;;24.20;26.20;;;;;;5045049;28;20037;-72
2021/03/28 11:14:37;;;;;;;0.00;0.00;;;24.30;26.60;;;;;;5037459;28;20025;-73
2021/03/28 11:17:42;;;;;;;1.25;0.15;;;24.40;26.90;;;;;;5054632;28;20025;-73
2021/03/28 11:20:43;;;;;;;0.43;0.20;;;24.50;26.70;;;;;;5023901;28;20025;-73
2021/03/28 11:23:38;;;;;;;2.35;0.95;;;24.60;26.80;;;;;;5060486;28;20489;-73
2021/03/28 11:26:30;;;;;;;0.95;0.22;;;24.60;26.40;;;;;;5053579;28;20021;-73
2021/03/28 11:29:08;;;;;;;0.60;0.30;;;24.70;25.90;;;;;;4954482;28;20070;-72
2021/03/28 11:31:52;;;;;;;1.55;0.45;;;24.80;26.10;;;;;;4953426;28;20503;-72
2021/03/28 11:34:32;;;;;;;0.65;0.17;;;24.80;25.90;;;;;;4954249;28;20035;-73
2021/03/28 11:37:35;;;;;;;0.82;0.17;;;24.90;25.80;;;;;;4958332;28;20689;-73
2021/03/28 11:40:14;;;;;;;0.55;0.13;;;25.00;26.20;;;;;;4948224;28;20058;-73
2021/03/28 11:42:40;;;;;;;0.40;0.30;;;25.10;26.30;;;;;;4962045;28;20530;-73
2021/03/28 11:45:30;;;;;;;0.10;0.10;;;25.20;26.30;;;;;;4970336;28;20160;-73
2021/03/28 11:47:56;;;;;;;1.13;0.45;;;25.20;26.10;;;;;;4916968;29;20047;-73
2021/03/28 11:50:31;;;;;;;0.10;0.10;;;25.20;26.00;;;;;;4925887;29;20046;-73
2021/03/28 11:53:36;;;;;;;4.85;0.30;;;25.20;25.70;;;;;;4934092;29;20036;-73
2021/03/28 11:56:01;;;;;;;0.38;0.30;;;25.20;25.90;;;;;;4929431;29;20521;-73
2021/03/28 11:58:39;;;;;;;3.58;0.15;;;25.20;26.20;;;;;;4933627;29;20083;-73
2021/03/28 12:01:04;;;;;;;0.35;0.28;;;25.20;26.30;;;;;;4934412;29;20103;-73
2021/03/28 12:03:39;;;;;;;0.20;0.20;;;25.20;26.50;;;;;;4932885;29;20127;-73
2021/03/28 12:06:30;;;;;;;2.33;0.52;;;25.20;26.50;;;;;;4948552;28;20112;-73
2021/03/28 12:09:00;;;;;;;0.22;0.22;;;25.20;26.70;;;;;;4955087;28;20035;-73
2021/03/28 12:11:47;;;;;;;2.50;0.52;;;25.20;26.30;;;;;;4953786;28;20113;-73
2021/03/28 12:14:13;;;;;;;0.85;0.45;;;25.10;25.80;;;;;;4957061;28;20114;-73
2021/03/28 12:17:11;;;;;;;1.67;0.40;;;25.20;26.30;;;;;;4962202;28;20110;-73
2021/03/28 12:19:59;;;;;;;0.98;0.43;;;25.20;26.70;;;;;;4936211;29;20103;-72
2021/03/28 12:22:31;;;;;;;1.75;0.40;;;25.20;26.60;;;;;;4931390;29;20051;-72
2021/03/28 12:25:18;;;;;;;1.08;0.45;;;25.20;26.80;;;;;;4946307;28;20066;-73
2021/03/28 12:27:56;;;;;;;3.25;0.70;;;25.20;27.00;;;;;;4975533;28;20034;-73
2021/03/28 12:30:27;;;;;;;3.15;0.85;;;25.30;26.90;;;;;;4972822;28;20074;-73
2021/03/28 12:32:56;;;;;;;0.52;0.40;;;25.30;26.60;;;;;;4974502;28;20047;-73
2021/03/28 12:35:32;;;;;;;0.47;0.25;;;25.30;26.00;;;;;;4972774;28;20587;-72
2021/03/28 12:37:58;;;;;;;1.50;0.08;;;25.40;26.10;;;;;;4989222;28;20043;-73
2021/03/28 12:40:35;;;;;;;2.63;0.43;;;25.50;26.40;;;;;;4988460;28;20576;-73
2021/03/28 12:43:01;;;;;;;2.08;0.30;;;25.60;26.40;;;;;;4970547;28;20478;-73
2021/03/28 12:45:26;;;;;;;4.03;0.57;;;25.60;25.80;;;;;;4976043;28;20034;-73
2021/03/28 12:47:56;;;;;;;1.35;0.10;;;25.70;26.00;;;;;;4978644;28;20046;-73
2021/03/28 12:50:27;;;;;;;3.15;0.50;;;25.70;25.60;;;;;;4959008;28;20046;-73
2021/03/28 12:53:02;;;;;;;2.05;0.50;;;25.80;25.90;;;;;;5008288;28;20113;-73
2021/03/28 12:55:31;;;;;;;1.20;0.50;;;25.80;25.50;;;;;;5027221;28;20073;-73
2021/03/28 12:58:10;;;;;;;1.10;0.45;;;25.80;25.20;;;;;;5052080;28;20111;-73
2021/03/28 13:00:51;;;;;;;1.13;0.50;;;25.80;25.30;;;;;;5020196;28;20029;-73
2021/03/28 13:03:33;;;;;;;4.28;0.63;;;25.80;25.50;;;;;;5044349;28;20040;-72
2021/03/28 13:06:02;;;;;;;1.48;0.50;;;25.90;25.50;;;;;;5051632;28;20041;-73
2021/03/28 13:09:11;;;;;;;0.60;0.30;;;25.90;25.50;;;;;;5034313;28;20467;-73
2021/03/28 13:11:44;;;;;;;0.35;0.00;;;26.00;25.40;;;;;;5044114;28;20053;-73
2021/03/28 13:14:42;;;;;;;0.40;0.40;;;26.20;25.60;;;;;;5027389;28;20083;-73
2021/03/28 13:17:13;;;;;;;1.45;0.35;;;26.30;25.50;;;;;;4992097;28;20612;-73
2021/03/28 13:19:40;;;;;;;0.30;0.20;;;26.30;25.00;;;;;;5002937;28;20510;-73
2021/03/28 13:22:24;;;;;;;3.03;0.60;;;26.30;25.00;;;;;;4983609;28;20458;-73
2021/03/28 13:24:50;;;;;;;0.30;0.20;;;26.50;25.40;;;;;;4994994;28;20085;-73
2021/03/28 13:27:19;;;;;;;0.05;0.05;;;26.60;25.60;;;;;;4980968;28;20057;-73
2021/03/28 13:29:53;;;;;;;1.35;0.20;;;26.60;25.80;;;;;;4973856;28;20053;-72
2021/03/28 13:32:23;;;;;;;5.15;0.50;;;26.70;25.80;;;;;;4989610;28;20055;-72
2021/03/28 13:34:51;;;;;;;1.40;0.28;;;26.80;26.10;;;;;;4997880;28;20402;-72
2021/03/28 13:37:29;;;;;;;1.58;0.75;;;26.80;25.20;;;;;;4995924;28;20065;-72
2021/03/28 13:40:20;;;;;;;0.85;0.22;;;26.90;25.20;;;;;;4999696;28;20034;-72
2021/03/28 13:43:03;;;;;;;0.57;0.22;;;27.00;25.40;;;;;;4923058;29;20530;-72
2021/03/28 13:45:35;;;;;;;3.70;0.63;;;27.10;25.60;;;;;;4920790;29;20036;-73
2021/03/28 13:48:10;;;;;;;1.08;0.35;;;27.20;25.50;;;;;;4916572;29;20047;-73
2021/03/28 13:50:44;;;;;;;0.40;0.10;;;27.20;25.20;;;;;;4916914;29;20028;-73
2021/03/28 13:53:16;;;;;;;0.88;0.20;;;27.20;25.10;;;;;;4934078;29;20504;-73
2021/03/28 13:56:04;;;;;;;0.15;0.15;;;27.40;25.20;;;;;;4952322;28;20028;-73
2021/03/28 13:58:32;;;;;;;0.20;0.20;;;27.50;25.30;;;;;;4940745;29;20086;-73
2021/03/28 14:01:20;;;;;;;0.13;0.10;;;27.50;25.00;;;;;;4920160;28;20400;-73
2021/03/28 14:03:46;;;;;;;2.35;0.82;;;27.60;25.00;;;;;;4929185;28;20502;-73
2021/03/28 14:06:24;;;;;;;0.10;0.10;;;27.60;24.60;;;;;;4959347;28;20057;-72
2021/03/28 14:09:03;;;;;;;0.75;0.28;;;27.70;24.70;;;;;;4960456;28;20119;-72
2021/03/28 14:11:48;;;;;;;0.35;0.30;;;27.70;24.60;;;;;;4937806;29;20530;-73
2021/03/28 14:14:22;;;;;;;0.15;0.15;;;27.80;25.10;;;;;;4946600;28;20509;-73
2021/03/28 14:16:48;;;;;;;0.50;0.10;;;27.80;24.60;;;;;;4960581;28;20023;-73
2021/03/28 14:19:22;;;;;;;1.10;0.22;;;27.80;24.40;;;;;;4987689;28;20509;-73
2021/03/28 14:21:48;;;;;;;1.55;0.30;;;27.90;24.40;;;;;;5049113;28;20045;-72
2021/03/28 14:24:20;;;;;;;1.02;0.40;;;27.90;24.40;;;;;;5051784;28;20028;-72
2021/03/28 14:26:53;;;;;;;1.20;0.10;;;28.00;24.40;;;;;;5051415;28;20021;-72
2021/03/28 14:29:47;;;;;;;1.60;0.28;;;28.00;24.40;;;;;;5026382;28;20508;-73
2021/03/28 14:32:13;;;;;;;0.55;0.32;;;28.00;24.50;;;;;;5033231;28;20079;-73
2021/03/28 14:35:34;;;;;;;1.10;0.40;;;28.00;24.40;;;;;;5043188;28;20025;-72
2021/03/28 14:37:59;;;;;;;1.00;0.47;;;27.90;24.00;;;;;;4949033;28;20122;-73
2021/03/28 14:40:45;;;;;;;0.40;0.10;;;27.90;24.20;;;;;;4943766;28;20504;-72
2021/03/28 14:43:17;;;;;;;0.22;0.17;;;27.90;24.50;;;;;;4918056;29;20526;-73
2021/03/28 14:46:01;;;;;;;0.98;0.22;;;27.80;24.80;;;;;;4917546;29;20053;-73
2021/03/28 14:48:38;;;;;;;0.70;0.25;;;27.80;24.30;;;;;;4933414;29;20043;-73